sensor_id;sensor_type;location;lat;lon;timestamp;temperature;humidity
15711;DHT22;7955;50.860;4.368;2022-07-06T00:00:25;15.90;99.90
15711;DHT22;7955;50.860;4.368;2022-07-06T00:02:51;15.90;99.90
15711;DHT22;7955;50.860;4.368;2022-07-06T00:05:18;15.90;99.90
15711;DHT22;7955;50.860;4.368;2022-07-06T00:07:45;15.90;99.90
15711;DHT22;7955;50.860;4.368;2022-07-06T00:10:13;15.90;99.90
15711;DHT22;7955;50.860;4.368;2022-07-06T00:12:40;15.90;99.90
15711;DHT22;7955;50.860;4.368;2022-07-06T00:15:07;15.90;99.90
15711;DHT22;7955;50.860;4.368;2022-07-06T00:17:34;15.80;99.90
15711;DHT22;7955;50.860;4.368;2022-07-06T00:20:01;15.80;99.90
15711;DHT22;7955;50.860;4.368;2022-07-06T00:22:28;15.80;99.90
15711;DHT22;7955;50.860;4.368;2022-07-06T00:24:55;15.80;99.90
15711;DHT22;7955;50.860;4.368;2022-07-06T00:27:23;15.80;99.90
15711;DHT22;7955;50.860;4.368;2022-07-06T00:29:50;15.80;99.90
15711;DHT22;7955;50.860;4.368;2022-07-06T00:32:17;15.80;99.90
15711;DHT22;7955;50.860;4.368;2022-07-06T00:34:44;15.80;99.90
15711;DHT22;7955;50.860;4.368;2022-07-06T00:37:11;15.80;99.90
15711;DHT22;7955;50.860;4.368;2022-07-06T00:39:40;15.70;99.90
15711;DHT22;7955;50.860;4.368;2022-07-06T00:42:08;15.70;99.90
15711;DHT22;7955;50.860;4.368;2022-07-06T00:44:36;15.70;99.90
15711;DHT22;7955;50.860;4.368;2022-07-06T00:47:03;15.60;99.90
15711;DHT22;7955;50.860;4.368;2022-07-06T00:49:31;15.60;99.90
15711;DHT22;7955;50.860;4.368;2022-07-06T00:52:15;15.50;99.90
15711;DHT22;7955;50.860;4.368;2022-07-06T00:54:43;15.60;99.90
15711;DHT22;7955;50.860;4.368;2022-07-06T00:57:10;15.70;99.90
15711;DHT22;7955;50.860;4.368;2022-07-06T00:59:39;15.60;99.90
15711;DHT22;7955;50.860;4.368;2022-07-06T01:02:06;15.70;99.90
15711;DHT22;7955;50.860;4.368;2022-07-06T01:04:33;15.60;99.90
15711;DHT22;7955;50.860;4.368;2022-07-06T01:07:00;15.50;99.90
15711;DHT22;7955;50.860;4.368;2022-07-06T01:09:28;15.50;99.90
15711;DHT22;7955;50.860;4.368;2022-07-06T01:11:55;15.40;99.90
15711;DHT22;7955;50.860;4.368;2022-07-06T01:14:22;15.40;99.90
15711;DHT22;7955;50.860;4.368;2022-07-06T01:16:51;15.30;99.90
15711;DHT22;7955;50.860;4.368;2022-07-06T01:19:18;15.30;99.90
15711;DHT22;7955;50.860;4.368;2022-07-06T01:21:46;15.30;99.90
15711;DHT22;7955;50.860;4.368;2022-07-06T01:24:13;15.30;99.90
15711;DHT22;7955;50.860;4.368;2022-07-06T01:26:40;15.30;99.90
15711;DHT22;7955;50.860;4.368;2022-07-06T01:29:07;15.40;99.90
15711;DHT22;7955;50.860;4.368;2022-07-06T01:31:34;15.30;99.90
15711;DHT22;7955;50.860;4.368;2022-07-06T01:34:01;15.30;99.90
15711;DHT22;7955;50.860;4.368;2022-07-06T01:36:28;15.20;99.90
15711;DHT22;7955;50.860;4.368;2022-07-06T01:38:56;15.20;99.90
15711;DHT22;7955;50.860;4.368;2022-07-06T01:41:24;15.20;99.90
15711;DHT22;7955;50.860;4.368;2022-07-06T01:43:51;15.20;99.90
15711;DHT22;7955;50.860;4.368;2022-07-06T01:46:17;15.20;99.90
15711;DHT22;7955;50.860;4.368;2022-07-06T01:48:45;15.20;99.90
15711;DHT22;7955;50.860;4.368;2022-07-06T01:51:12;15.20;99.90
15711;DHT22;7955;50.860;4.368;2022-07-06T01:53:39;15.20;99.90
15711;DHT22;7955;50.860;4.368;2022-07-06T01:56:08;15.20;99.90
15711;DHT22;7955;50.860;4.368;2022-07-06T01:58:36;15.20;99.90
15711;DHT22;7955;50.860;4.368;2022-07-06T02:01:07;15.20;99.90
15711;DHT22;7955;50.860;4.368;2022-07-06T02:03:34;15.20;99.90
15711;DHT22;7955;50.860;4.368;2022-07-06T02:06:01;15.10;99.90
15711;DHT22;7955;50.860;4.368;2022-07-06T02:08:28;15.10;99.90
15711;DHT22;7955;50.860;4.368;2022-07-06T02:10:55;15.20;99.90
15711;DHT22;7955;50.860;4.368;2022-07-06T02:13:23;15.20;99.90
15711;DHT22;7955;50.860;4.368;2022-07-06T02:15:50;15.30;99.90
15711;DHT22;7955;50.860;4.368;2022-07-06T02:18:17;15.20;99.90
15711;DHT22;7955;50.860;4.368;2022-07-06T02:20:44;15.10;99.90
15711;DHT22;7955;50.860;4.368;2022-07-06T02:23:11;15.20;99.90
15711;DHT22;7955;50.860;4.368;2022-07-06T02:25:38;15.20;99.90
15711;DHT22;7955;50.860;4.368;2022-07-06T02:28:05;15.30;99.90
15711;DHT22;7955;50.860;4.368;2022-07-06T02:30:33;15.20;99.90
15711;DHT22;7955;50.860;4.368;2022-07-06T02:33:00;15.10;99.90
15711;DHT22;7955;50.860;4.368;2022-07-06T02:35:27;15.00;99.90
15711;DHT22;7955;50.860;4.368;2022-07-06T02:37:53;15.10;99.90
15711;DHT22;7955;50.860;4.368;2022-07-06T02:40:20;15.00;99.90
15711;DHT22;7955;50.860;4.368;2022-07-06T02:42:47;15.00;99.90
15711;DHT22;7955;50.860;4.368;2022-07-06T02:45:14;15.00;99.90
15711;DHT22;7955;50.860;4.368;2022-07-06T02:47:42;14.90;99.90
15711;DHT22;7955;50.860;4.368;2022-07-06T02:50:09;15.00;99.90
15711;DHT22;7955;50.860;4.368;2022-07-06T02:52:36;14.90;99.90
15711;DHT22;7955;50.860;4.368;2022-07-06T02:55:04;14.80;99.90
15711;DHT22;7955;50.860;4.368;2022-07-06T02:57:31;14.80;99.90
15711;DHT22;7955;50.860;4.368;2022-07-06T02:59:58;14.80;99.90
15711;DHT22;7955;50.860;4.368;2022-07-06T03:02:24;14.80;99.90
15711;DHT22;7955;50.860;4.368;2022-07-06T03:04:52;14.80;99.90
15711;DHT22;7955;50.860;4.368;2022-07-06T03:07:19;14.80;99.90
15711;DHT22;7955;50.860;4.368;2022-07-06T03:09:46;14.70;99.90
15711;DHT22;7955;50.860;4.368;2022-07-06T03:12:13;14.70;99.90
15711;DHT22;7955;50.860;4.368;2022-07-06T03:14:41;14.70;99.90
15711;DHT22;7955;50.860;4.368;2022-07-06T03:17:09;14.70;99.90
15711;DHT22;7955;50.860;4.368;2022-07-06T03:19:36;14.70;99.90
15711;DHT22;7955;50.860;4.368;2022-07-06T03:22:04;14.80;99.90
15711;DHT22;7955;50.860;4.368;2022-07-06T03:24:31;14.80;99.90
15711;DHT22;7955;50.860;4.368;2022-07-06T03:26:58;14.70;99.90
15711;DHT22;7955;50.860;4.368;2022-07-06T03:29:25;14.70;99.90
15711;DHT22;7955;50.860;4.368;2022-07-06T03:31:52;14.70;99.90
15711;DHT22;7955;50.860;4.368;2022-07-06T03:34:19;14.70;99.90
15711;DHT22;7955;50.860;4.368;2022-07-06T03:36:46;14.70;99.90
15711;DHT22;7955;50.860;4.368;2022-07-06T03:39:14;14.70;99.90
15711;DHT22;7955;50.860;4.368;2022-07-06T03:41:41;14.70;99.90
15711;DHT22;7955;50.860;4.368;2022-07-06T03:44:08;14.70;99.90
15711;DHT22;7955;50.860;4.368;2022-07-06T03:46:35;14.70;99.90
15711;DHT22;7955;50.860;4.368;2022-07-06T03:49:02;14.70;99.90
15711;DHT22;7955;50.860;4.368;2022-07-06T03:51:29;14.80;99.90
15711;DHT22;7955;50.860;4.368;2022-07-06T03:53:55;14.90;99.90
15711;DHT22;7955;50.860;4.368;2022-07-06T03:56:24;14.90;99.90
15711;DHT22;7955;50.860;4.368;2022-07-06T03:58:59;14.90;99.90
15711;DHT22;7955;50.860;4.368;2022-07-06T04:01:26;14.90;99.90
15711;DHT22;7955;50.860;4.368;2022-07-06T04:03:54;14.90;99.90
15711;DHT22;7955;50.860;4.368;2022-07-06T04:06:21;14.80;99.90
15711;DHT22;7955;50.860;4.368;2022-07-06T04:08:48;14.80;99.90
15711;DHT22;7955;50.860;4.368;2022-07-06T04:11:15;14.70;99.90
15711;DHT22;7955;50.860;4.368;2022-07-06T04:13:43;14.80;99.90
15711;DHT22;7955;50.860;4.368;2022-07-06T04:16:10;14.90;99.90
15711;DHT22;7955;50.860;4.368;2022-07-06T04:18:37;14.90;99.90
15711;DHT22;7955;50.860;4.368;2022-07-06T04:21:03;14.80;99.90
15711;DHT22;7955;50.860;4.368;2022-07-06T04:23:30;14.80;99.90
15711;DHT22;7955;50.860;4.368;2022-07-06T04:25:57;14.80;99.90
15711;DHT22;7955;50.860;4.368;2022-07-06T04:28:24;14.90;99.90
15711;DHT22;7955;50.860;4.368;2022-07-06T04:30:52;15.00;99.90
15711;DHT22;7955;50.860;4.368;2022-07-06T04:33:19;14.90;99.90
15711;DHT22;7955;50.860;4.368;2022-07-06T04:35:46;14.90;99.90
15711;DHT22;7955;50.860;4.368;2022-07-06T04:38:13;14.80;99.90
15711;DHT22;7955;50.860;4.368;2022-07-06T04:40:40;14.80;99.90
15711;DHT22;7955;50.860;4.368;2022-07-06T04:43:07;14.80;99.90
15711;DHT22;7955;50.860;4.368;2022-07-06T04:45:34;14.80;99.90
15711;DHT22;7955;50.860;4.368;2022-07-06T04:48:02;14.80;99.90
15711;DHT22;7955;50.860;4.368;2022-07-06T04:50:29;14.90;99.90
15711;DHT22;7955;50.860;4.368;2022-07-06T04:52:57;14.90;99.90
15711;DHT22;7955;50.860;4.368;2022-07-06T04:55:24;14.90;99.90
15711;DHT22;7955;50.860;4.368;2022-07-06T04:57:51;14.90;99.90
15711;DHT22;7955;50.860;4.368;2022-07-06T05:00:18;14.90;99.90
15711;DHT22;7955;50.860;4.368;2022-07-06T05:02:45;15.00;99.90
15711;DHT22;7955;50.860;4.368;2022-07-06T05:05:13;15.00;99.90
15711;DHT22;7955;50.860;4.368;2022-07-06T05:07:40;15.00;99.90
15711;DHT22;7955;50.860;4.368;2022-07-06T05:10:08;15.00;99.90
15711;DHT22;7955;50.860;4.368;2022-07-06T05:12:36;15.00;99.90
15711;DHT22;7955;50.860;4.368;2022-07-06T05:15:04;15.00;99.90
15711;DHT22;7955;50.860;4.368;2022-07-06T05:17:31;15.00;99.90
15711;DHT22;7955;50.860;4.368;2022-07-06T05:19:57;15.00;99.90
15711;DHT22;7955;50.860;4.368;2022-07-06T05:22:26;15.00;99.90
15711;DHT22;7955;50.860;4.368;2022-07-06T05:24:53;15.00;99.90
15711;DHT22;7955;50.860;4.368;2022-07-06T05:27:19;15.10;99.90
15711;DHT22;7955;50.860;4.368;2022-07-06T05:29:46;15.10;99.90
15711;DHT22;7955;50.860;4.368;2022-07-06T05:32:13;15.10;99.90
15711;DHT22;7955;50.860;4.368;2022-07-06T05:34:40;15.10;99.90
15711;DHT22;7955;50.860;4.368;2022-07-06T05:37:07;15.10;99.90
15711;DHT22;7955;50.860;4.368;2022-07-06T05:39:35;15.20;99.90
15711;DHT22;7955;50.860;4.368;2022-07-06T05:42:03;15.20;99.90
15711;DHT22;7955;50.860;4.368;2022-07-06T05:44:31;15.30;99.90
15711;DHT22;7955;50.860;4.368;2022-07-06T05:46:58;15.40;99.90
15711;DHT22;7955;50.860;4.368;2022-07-06T05:49:38;15.40;99.90
15711;DHT22;7955;50.860;4.368;2022-07-06T05:52:23;15.50;99.90
15711;DHT22;7955;50.860;4.368;2022-07-06T05:54:51;15.60;99.90
15711;DHT22;7955;50.860;4.368;2022-07-06T05:57:18;15.70;99.90
15711;DHT22;7955;50.860;4.368;2022-07-06T05:59:45;15.80;99.90
15711;DHT22;7955;50.860;4.368;2022-07-06T06:02:11;15.90;99.90
15711;DHT22;7955;50.860;4.368;2022-07-06T06:04:38;15.90;99.90
15711;DHT22;7955;50.860;4.368;2022-07-06T06:07:05;15.90;99.90
15711;DHT22;7955;50.860;4.368;2022-07-06T06:09:32;16.00;99.90
15711;DHT22;7955;50.860;4.368;2022-07-06T06:12:00;16.10;99.90
15711;DHT22;7955;50.860;4.368;2022-07-06T06:14:27;16.10;99.90
15711;DHT22;7955;50.860;4.368;2022-07-06T06:16:54;16.10;99.90
15711;DHT22;7955;50.860;4.368;2022-07-06T06:19:21;16.20;99.90
15711;DHT22;7955;50.860;4.368;2022-07-06T06:21:47;16.30;99.90
15711;DHT22;7955;50.860;4.368;2022-07-06T06:24:14;16.40;99.90
15711;DHT22;7955;50.860;4.368;2022-07-06T06:26:41;16.50;99.90
15711;DHT22;7955;50.860;4.368;2022-07-06T06:29:10;16.70;99.90
15711;DHT22;7955;50.860;4.368;2022-07-06T06:31:36;16.80;99.90
15711;DHT22;7955;50.860;4.368;2022-07-06T06:34:03;16.90;99.90
15711;DHT22;7955;50.860;4.368;2022-07-06T06:36:30;16.90;99.90
15711;DHT22;7955;50.860;4.368;2022-07-06T06:38:57;16.90;99.90
15711;DHT22;7955;50.860;4.368;2022-07-06T06:41:24;16.90;99.90
15711;DHT22;7955;50.860;4.368;2022-07-06T06:43:51;17.10;99.90
15711;DHT22;7955;50.860;4.368;2022-07-06T06:46:19;17.10;99.90
15711;DHT22;7955;50.860;4.368;2022-07-06T06:48:46;17.10;99.90
15711;DHT22;7955;50.860;4.368;2022-07-06T06:51:12;17.20;99.90
15711;DHT22;7955;50.860;4.368;2022-07-06T06:53:39;17.20;99.90
15711;DHT22;7955;50.860;4.368;2022-07-06T06:56:07;17.30;99.90
15711;DHT22;7955;50.860;4.368;2022-07-06T06:58:34;17.50;99.90
15711;DHT22;7955;50.860;4.368;2022-07-06T07:01:01;17.60;99.90
15711;DHT22;7955;50.860;4.368;2022-07-06T07:03:31;17.60;99.90
15711;DHT22;7955;50.860;4.368;2022-07-06T07:05:58;17.70;99.90
15711;DHT22;7955;50.860;4.368;2022-07-06T07:08:25;17.90;99.90
15711;DHT22;7955;50.860;4.368;2022-07-06T07:10:52;18.00;99.90
15711;DHT22;7955;50.860;4.368;2022-07-06T07:13:19;17.90;99.90
15711;DHT22;7955;50.860;4.368;2022-07-06T07:15:46;17.90;99.90
15711;DHT22;7955;50.860;4.368;2022-07-06T07:18:12;18.00;99.90
15711;DHT22;7955;50.860;4.368;2022-07-06T07:20:41;17.90;99.90
15711;DHT22;7955;50.860;4.368;2022-07-06T07:23:08;18.10;99.90
15711;DHT22;7955;50.860;4.368;2022-07-06T07:25:34;18.10;99.90
15711;DHT22;7955;50.860;4.368;2022-07-06T07:28:04;18.40;99.90
15711;DHT22;7955;50.860;4.368;2022-07-06T07:30:31;18.70;99.90
15711;DHT22;7955;50.860;4.368;2022-07-06T07:32:58;18.80;99.90
15711;DHT22;7955;50.860;4.368;2022-07-06T07:35:26;18.80;99.90
15711;DHT22;7955;50.860;4.368;2022-07-06T07:37:54;18.40;99.90
15711;DHT22;7955;50.860;4.368;2022-07-06T07:40:21;18.60;99.90
15711;DHT22;7955;50.860;4.368;2022-07-06T07:42:48;18.80;99.90
15711;DHT22;7955;50.860;4.368;2022-07-06T07:45:15;18.70;99.90
15711;DHT22;7955;50.860;4.368;2022-07-06T07:47:42;18.70;99.90
15711;DHT22;7955;50.860;4.368;2022-07-06T07:50:09;18.90;99.90
15711;DHT22;7955;50.860;4.368;2022-07-06T07:52:36;18.90;99.90
15711;DHT22;7955;50.860;4.368;2022-07-06T07:55:06;19.10;99.90
15711;DHT22;7955;50.860;4.368;2022-07-06T07:57:33;19.10;99.90
15711;DHT22;7955;50.860;4.368;2022-07-06T07:59:59;19.00;99.90
15711;DHT22;7955;50.860;4.368;2022-07-06T08:02:26;19.20;99.90
15711;DHT22;7955;50.860;4.368;2022-07-06T08:04:53;19.20;99.90
15711;DHT22;7955;50.860;4.368;2022-07-06T08:07:20;19.30;99.90
15711;DHT22;7955;50.860;4.368;2022-07-06T08:09:47;19.20;99.90
15711;DHT22;7955;50.860;4.368;2022-07-06T08:12:15;19.40;99.90
15711;DHT22;7955;50.860;4.368;2022-07-06T08:14:42;19.60;99.90
15711;DHT22;7955;50.860;4.368;2022-07-06T08:17:09;19.60;99.90
15711;DHT22;7955;50.860;4.368;2022-07-06T08:19:36;19.70;99.90
15711;DHT22;7955;50.860;4.368;2022-07-06T08:22:03;19.60;99.90
15711;DHT22;7955;50.860;4.368;2022-07-06T08:24:32;19.60;99.90
15711;DHT22;7955;50.860;4.368;2022-07-06T08:26:59;19.40;99.90
15711;DHT22;7955;50.860;4.368;2022-07-06T08:29:27;19.30;99.90
15711;DHT22;7955;50.860;4.368;2022-07-06T08:31:54;19.30;99.90
15711;DHT22;7955;50.860;4.368;2022-07-06T08:34:21;19.50;99.90
15711;DHT22;7955;50.860;4.368;2022-07-06T08:36:48;19.40;99.90
15711;DHT22;7955;50.860;4.368;2022-07-06T08:39:15;19.40;99.90
15711;DHT22;7955;50.860;4.368;2022-07-06T08:41:44;19.10;99.90
15711;DHT22;7955;50.860;4.368;2022-07-06T08:44:13;19.20;99.90
15711;DHT22;7955;50.860;4.368;2022-07-06T08:46:42;19.60;99.90
15711;DHT22;7955;50.860;4.368;2022-07-06T08:49:13;19.70;99.90
15711;DHT22;7955;50.860;4.368;2022-07-06T08:51:41;19.90;99.90
15711;DHT22;7955;50.860;4.368;2022-07-06T08:54:08;19.90;99.90
15711;DHT22;7955;50.860;4.368;2022-07-06T08:56:37;20.00;99.90
15711;DHT22;7955;50.860;4.368;2022-07-06T08:59:04;20.20;99.90
15711;DHT22;7955;50.860;4.368;2022-07-06T09:01:35;20.00;99.90
15711;DHT22;7955;50.860;4.368;2022-07-06T09:04:05;20.00;99.90
15711;DHT22;7955;50.860;4.368;2022-07-06T09:06:33;19.80;99.90
15711;DHT22;7955;50.860;4.368;2022-07-06T09:09:05;19.90;99.90
15711;DHT22;7955;50.860;4.368;2022-07-06T09:11:32;19.70;99.90
15711;DHT22;7955;50.860;4.368;2022-07-06T09:13:59;19.90;99.90
15711;DHT22;7955;50.860;4.368;2022-07-06T09:16:27;20.20;99.90
15711;DHT22;7955;50.860;4.368;2022-07-06T09:18:55;20.40;99.90
15711;DHT22;7955;50.860;4.368;2022-07-06T09:21:27;20.30;99.90
15711;DHT22;7955;50.860;4.368;2022-07-06T09:23:57;20.40;99.90
15711;DHT22;7955;50.860;4.368;2022-07-06T09:26:24;20.40;99.90
15711;DHT22;7955;50.860;4.368;2022-07-06T09:28:52;20.70;99.90
15711;DHT22;7955;50.860;4.368;2022-07-06T09:31:21;20.90;99.90
15711;DHT22;7955;50.860;4.368;2022-07-06T09:33:55;20.60;99.90
15711;DHT22;7955;50.860;4.368;2022-07-06T09:36:44;20.60;99.90
15711;DHT22;7955;50.860;4.368;2022-07-06T09:39:19;20.80;99.90
15711;DHT22;7955;50.860;4.368;2022-07-06T09:41:47;20.60;99.90
15711;DHT22;7955;50.860;4.368;2022-07-06T09:44:19;20.90;99.90
15711;DHT22;7955;50.860;4.368;2022-07-06T09:46:47;21.00;99.90
15711;DHT22;7955;50.860;4.368;2022-07-06T09:49:17;21.00;99.90
15711;DHT22;7955;50.860;4.368;2022-07-06T09:51:46;20.90;99.90
15711;DHT22;7955;50.860;4.368;2022-07-06T09:54:14;20.70;99.90
15711;DHT22;7955;50.860;4.368;2022-07-06T09:56:42;20.80;99.90
15711;DHT22;7955;50.860;4.368;2022-07-06T09:59:10;20.90;99.90
15711;DHT22;7955;50.860;4.368;2022-07-06T10:01:37;20.40;99.90
15711;DHT22;7955;50.860;4.368;2022-07-06T10:04:05;20.50;99.90
15711;DHT22;7955;50.860;4.368;2022-07-06T10:06:33;20.70;99.90
15711;DHT22;7955;50.860;4.368;2022-07-06T10:09:04;21.00;99.90
15711;DHT22;7955;50.860;4.368;2022-07-06T10:11:34;21.10;99.90
15711;DHT22;7955;50.860;4.368;2022-07-06T10:14:04;21.30;99.90
15711;DHT22;7955;50.860;4.368;2022-07-06T10:16:35;21.20;99.90
15711;DHT22;7955;50.860;4.368;2022-07-06T10:19:04;21.00;99.90
15711;DHT22;7955;50.860;4.368;2022-07-06T10:21:31;20.50;99.90
15711;DHT22;7955;50.860;4.368;2022-07-06T10:24:00;20.70;99.90
15711;DHT22;7955;50.860;4.368;2022-07-06T10:26:27;20.90;99.90
15711;DHT22;7955;50.860;4.368;2022-07-06T10:28:58;20.90;99.90
15711;DHT22;7955;50.860;4.368;2022-07-06T10:31:26;21.30;99.90
15711;DHT22;7955;50.860;4.368;2022-07-06T10:33:55;21.10;99.90
15711;DHT22;7955;50.860;4.368;2022-07-06T10:36:22;20.90;99.90
15711;DHT22;7955;50.860;4.368;2022-07-06T10:38:51;21.20;99.90
15711;DHT22;7955;50.860;4.368;2022-07-06T10:41:30;21.30;99.90
15711;DHT22;7955;50.860;4.368;2022-07-06T10:43:57;21.40;99.90
15711;DHT22;7955;50.860;4.368;2022-07-06T10:46:27;21.40;99.90
15711;DHT22;7955;50.860;4.368;2022-07-06T10:48:56;21.10;99.90
15711;DHT22;7955;50.860;4.368;2022-07-06T10:51:25;21.10;99.90
15711;DHT22;7955;50.860;4.368;2022-07-06T10:53:56;20.90;99.90
15711;DHT22;7955;50.860;4.368;2022-07-06T10:56:32;20.90;99.90
15711;DHT22;7955;50.860;4.368;2022-07-06T10:59:02;21.00;99.90
15711;DHT22;7955;50.860;4.368;2022-07-06T11:01:29;21.60;99.90
15711;DHT22;7955;50.860;4.368;2022-07-06T11:04:06;21.70;99.90
15711;DHT22;7955;50.860;4.368;2022-07-06T11:06:34;21.60;99.90
15711;DHT22;7955;50.860;4.368;2022-07-06T11:09:03;21.50;99.90
15711;DHT22;7955;50.860;4.368;2022-07-06T11:11:40;22.00;99.90
15711;DHT22;7955;50.860;4.368;2022-07-06T11:14:10;22.00;99.90
15711;DHT22;7955;50.860;4.368;2022-07-06T11:16:39;21.90;99.90
15711;DHT22;7955;50.860;4.368;2022-07-06T11:19:08;21.80;99.90
15711;DHT22;7955;50.860;4.368;2022-07-06T11:21:38;22.00;99.90
15711;DHT22;7955;50.860;4.368;2022-07-06T11:24:07;22.00;99.90
15711;DHT22;7955;50.860;4.368;2022-07-06T11:26:35;21.90;99.90
15711;DHT22;7955;50.860;4.368;2022-07-06T11:29:05;21.90;99.90
15711;DHT22;7955;50.860;4.368;2022-07-06T11:31:34;22.00;99.90
15711;DHT22;7955;50.860;4.368;2022-07-06T11:34:01;22.00;99.90
15711;DHT22;7955;50.860;4.368;2022-07-06T11:36:28;22.10;99.90
15711;DHT22;7955;50.860;4.368;2022-07-06T11:38:55;21.70;99.90
15711;DHT22;7955;50.860;4.368;2022-07-06T11:41:22;22.10;99.90
15711;DHT22;7955;50.860;4.368;2022-07-06T11:43:49;21.80;99.90
15711;DHT22;7955;50.860;4.368;2022-07-06T11:46:35;22.00;99.90
15711;DHT22;7955;50.860;4.368;2022-07-06T11:49:04;22.40;99.90
15711;DHT22;7955;50.860;4.368;2022-07-06T11:51:32;22.60;99.90
15711;DHT22;7955;50.860;4.368;2022-07-06T11:54:01;22.90;99.90
15711;DHT22;7955;50.860;4.368;2022-07-06T11:56:29;22.70;99.90
15711;DHT22;7955;50.860;4.368;2022-07-06T11:58:58;22.80;99.90
15711;DHT22;7955;50.860;4.368;2022-07-06T12:01:27;22.80;99.90
15711;DHT22;7955;50.860;4.368;2022-07-06T12:03:57;22.80;99.90
15711;DHT22;7955;50.860;4.368;2022-07-06T12:06:26;22.80;99.90
15711;DHT22;7955;50.860;4.368;2022-07-06T12:08:54;22.70;99.90
15711;DHT22;7955;50.860;4.368;2022-07-06T12:11:22;22.80;99.90
15711;DHT22;7955;50.860;4.368;2022-07-06T12:13:49;23.00;99.90
15711;DHT22;7955;50.860;4.368;2022-07-06T12:16:17;23.20;99.90
15711;DHT22;7955;50.860;4.368;2022-07-06T12:18:47;23.10;99.90
15711;DHT22;7955;50.860;4.368;2022-07-06T12:21:15;22.80;99.90
15711;DHT22;7955;50.860;4.368;2022-07-06T12:23:45;22.60;99.90
15711;DHT22;7955;50.860;4.368;2022-07-06T12:26:13;22.80;99.90
15711;DHT22;7955;50.860;4.368;2022-07-06T12:28:41;22.90;99.90
15711;DHT22;7955;50.860;4.368;2022-07-06T12:31:08;23.30;99.90
15711;DHT22;7955;50.860;4.368;2022-07-06T12:33:35;23.10;99.90
15711;DHT22;7955;50.860;4.368;2022-07-06T12:36:11;22.80;99.90
15711;DHT22;7955;50.860;4.368;2022-07-06T12:38:44;22.90;99.90
15711;DHT22;7955;50.860;4.368;2022-07-06T12:41:24;22.80;99.90
15711;DHT22;7955;50.860;4.368;2022-07-06T12:44:00;23.30;99.90
15711;DHT22;7955;50.860;4.368;2022-07-06T12:46:28;23.20;99.90
15711;DHT22;7955;50.860;4.368;2022-07-06T12:48:56;23.00;99.90
15711;DHT22;7955;50.860;4.368;2022-07-06T12:51:25;22.60;99.90
15711;DHT22;7955;50.860;4.368;2022-07-06T12:54:11;22.40;99.90
15711;DHT22;7955;50.860;4.368;2022-07-06T12:56:57;22.10;99.90
15711;DHT22;7955;50.860;4.368;2022-07-06T12:59:24;22.30;99.90
15711;DHT22;7955;50.860;4.368;2022-07-06T13:01:52;22.40;99.90
15711;DHT22;7955;50.860;4.368;2022-07-06T13:04:21;23.20;99.90
15711;DHT22;7955;50.860;4.368;2022-07-06T13:06:50;23.30;99.90
15711;DHT22;7955;50.860;4.368;2022-07-06T13:09:17;23.70;99.90
15711;DHT22;7955;50.860;4.368;2022-07-06T13:11:45;23.50;99.90
15711;DHT22;7955;50.860;4.368;2022-07-06T13:14:12;23.10;99.90
15711;DHT22;7955;50.860;4.368;2022-07-06T13:16:39;22.80;99.90
15711;DHT22;7955;50.860;4.368;2022-07-06T13:19:06;22.60;99.90
15711;DHT22;7955;50.860;4.368;2022-07-06T13:21:33;22.40;99.90
15711;DHT22;7955;50.860;4.368;2022-07-06T13:24:01;22.50;99.90
15711;DHT22;7955;50.860;4.368;2022-07-06T13:26:29;23.00;99.90
15711;DHT22;7955;50.860;4.368;2022-07-06T13:28:58;23.10;99.90
15711;DHT22;7955;50.860;4.368;2022-07-06T13:31:26;22.80;99.90
15711;DHT22;7955;50.860;4.368;2022-07-06T13:33:53;23.00;99.90
15711;DHT22;7955;50.860;4.368;2022-07-06T13:36:20;23.50;99.90
15711;DHT22;7955;50.860;4.368;2022-07-06T13:38:47;23.90;99.90
15711;DHT22;7955;50.860;4.368;2022-07-06T13:41:15;24.50;99.90
15711;DHT22;7955;50.860;4.368;2022-07-06T13:43:42;24.60;99.90
15711;DHT22;7955;50.860;4.368;2022-07-06T13:46:09;24.40;99.90
15711;DHT22;7955;50.860;4.368;2022-07-06T13:48:37;24.40;99.90
15711;DHT22;7955;50.860;4.368;2022-07-06T13:51:03;24.70;99.90
15711;DHT22;7955;50.860;4.368;2022-07-06T13:53:30;24.70;99.90
15711;DHT22;7955;50.860;4.368;2022-07-06T13:55:58;24.50;99.90
15711;DHT22;7955;50.860;4.368;2022-07-06T13:58:26;24.40;99.90
15711;DHT22;7955;50.860;4.368;2022-07-06T14:00:53;24.00;99.90
15711;DHT22;7955;50.860;4.368;2022-07-06T14:03:20;24.00;99.90
15711;DHT22;7955;50.860;4.368;2022-07-06T14:05:53;24.30;99.90
15711;DHT22;7955;50.860;4.368;2022-07-06T14:08:20;24.60;99.90
15711;DHT22;7955;50.860;4.368;2022-07-06T14:10:47;24.60;99.90
15711;DHT22;7955;50.860;4.368;2022-07-06T14:13:14;24.40;99.90
15711;DHT22;7955;50.860;4.368;2022-07-06T14:15:42;24.70;99.90
15711;DHT22;7955;50.860;4.368;2022-07-06T14:18:09;24.00;99.90
15711;DHT22;7955;50.860;4.368;2022-07-06T14:20:36;23.90;99.90
15711;DHT22;7955;50.860;4.368;2022-07-06T14:23:03;24.00;99.90
15711;DHT22;7955;50.860;4.368;2022-07-06T14:25:30;23.90;99.90
15711;DHT22;7955;50.860;4.368;2022-07-06T14:27:57;24.10;99.90
15711;DHT22;7955;50.860;4.368;2022-07-06T14:30:24;23.90;99.90
15711;DHT22;7955;50.860;4.368;2022-07-06T14:32:53;23.70;99.90
15711;DHT22;7955;50.860;4.368;2022-07-06T14:35:20;23.60;99.90
15711;DHT22;7955;50.860;4.368;2022-07-06T14:37:47;23.60;99.90
15711;DHT22;7955;50.860;4.368;2022-07-06T14:40:14;23.50;99.90
15711;DHT22;7955;50.860;4.368;2022-07-06T14:42:41;23.60;99.90
15711;DHT22;7955;50.860;4.368;2022-07-06T14:45:08;23.70;99.90
15711;DHT22;7955;50.860;4.368;2022-07-06T14:47:36;24.00;99.90
15711;DHT22;7955;50.860;4.368;2022-07-06T14:50:05;24.20;99.90
15711;DHT22;7955;50.860;4.368;2022-07-06T14:52:32;24.40;99.90
15711;DHT22;7955;50.860;4.368;2022-07-06T14:54:58;23.90;99.90
15711;DHT22;7955;50.860;4.368;2022-07-06T14:57:26;24.00;99.90
15711;DHT22;7955;50.860;4.368;2022-07-06T14:59:53;24.00;99.90
15711;DHT22;7955;50.860;4.368;2022-07-06T15:02:20;24.00;99.90
15711;DHT22;7955;50.860;4.368;2022-07-06T15:04:47;23.90;99.90
15711;DHT22;7955;50.860;4.368;2022-07-06T15:07:15;23.80;99.90
15711;DHT22;7955;50.860;4.368;2022-07-06T15:09:42;23.80;99.90
15711;DHT22;7955;50.860;4.368;2022-07-06T15:12:09;23.80;99.90
15711;DHT22;7955;50.860;4.368;2022-07-06T15:14:36;23.80;99.90
15711;DHT22;7955;50.860;4.368;2022-07-06T15:17:04;23.90;99.90
15711;DHT22;7955;50.860;4.368;2022-07-06T15:19:31;24.20;99.90
15711;DHT22;7955;50.860;4.368;2022-07-06T15:21:58;24.00;99.90
15711;DHT22;7955;50.860;4.368;2022-07-06T15:24:26;24.20;99.90
15711;DHT22;7955;50.860;4.368;2022-07-06T15:26:53;24.00;99.90
15711;DHT22;7955;50.860;4.368;2022-07-06T15:29:20;23.70;99.90
15711;DHT22;7955;50.860;4.368;2022-07-06T15:31:47;23.60;99.90
15711;DHT22;7955;50.860;4.368;2022-07-06T15:34:14;23.50;99.90
15711;DHT22;7955;50.860;4.368;2022-07-06T15:36:41;23.50;99.90
15711;DHT22;7955;50.860;4.368;2022-07-06T15:39:08;23.40;99.90
15711;DHT22;7955;50.860;4.368;2022-07-06T15:41:36;23.60;99.90
15711;DHT22;7955;50.860;4.368;2022-07-06T15:44:03;23.40;99.90
15711;DHT22;7955;50.860;4.368;2022-07-06T15:46:30;23.30;99.90
15711;DHT22;7955;50.860;4.368;2022-07-06T15:48:57;23.20;99.90